sensor_id;sensor_type;location;lat;lon;timestamp;pressure;altitude;pressure_sealevel;temperature;humidity
9439;BME280;5176;42.622;25.386;2023-04-10T00:00:28;97356.19;;;9.20;64.63
9439;BME280;5176;42.622;25.386;2023-04-10T00:02:57;97355.88;;;9.10;64.15
9439;BME280;5176;42.622;25.386;2023-04-10T00:05:27;97356.28;;;9.02;65.27
9439;BME280;5176;42.622;25.386;2023-04-10T00:07:56;97351.41;;;8.96;65.20
9439;BME280;5176;42.622;25.386;2023-04-10T00:10:26;97338.50;;;8.93;65.07
9439;BME280;5176;42.622;25.386;2023-04-10T00:12:56;97337.66;;;8.77;66.08
9439;BME280;5176;42.622;25.386;2023-04-10T00:15:26;97334.03;;;8.80;66.67
9439;BME280;5176;42.622;25.386;2023-04-10T00:17:56;97340.69;;;8.69;66.86
9439;BME280;5176;42.622;25.386;2023-04-10T00:20:25;97321.88;;;8.47;67.79
9439;BME280;5176;42.622;25.386;2023-04-10T00:22:53;97331.56;;;8.61;67.37
9439;BME280;5176;42.622;25.386;2023-04-10T00:25:22;97319.03;;;8.18;68.52
9439;BME280;5176;42.622;25.386;2023-04-10T00:27:52;97307.50;;;8.23;68.43
9439;BME280;5176;42.622;25.386;2023-04-10T00:30:21;97314.41;;;8.24;68.27
9439;BME280;5176;42.622;25.386;2023-04-10T00:32:50;97312.69;;;8.40;68.21
9439;BME280;5176;42.622;25.386;2023-04-10T00:35:19;97306.94;;;8.49;68.26
9439;BME280;5176;42.622;25.386;2023-04-10T00:37:48;97299.63;;;8.56;66.56
9439;BME280;5176;42.622;25.386;2023-04-10T00:40:17;97299.88;;;8.67;66.14
9439;BME280;5176;42.622;25.386;2023-04-10T00:42:46;97298.38;;;8.79;64.14
9439;BME280;5176;42.622;25.386;2023-04-10T00:45:16;97296.16;;;8.87;62.18
9439;BME280;5176;42.622;25.386;2023-04-10T00:47:45;97285.56;;;8.90;61.83
9439;BME280;5176;42.622;25.386;2023-04-10T00:50:14;97292.97;;;8.97;61.70
9439;BME280;5176;42.622;25.386;2023-04-10T00:52:43;97288.28;;;9.02;61.02
9439;BME280;5176;42.622;25.386;2023-04-10T00:55:12;97298.50;;;9.07;60.27
9439;BME280;5176;42.622;25.386;2023-04-10T00:57:43;97289.66;;;8.94;61.12
9439;BME280;5176;42.622;25.386;2023-04-10T01:00:13;97294.88;;;8.94;61.20
9439;BME280;5176;42.622;25.386;2023-04-10T01:02:44;97299.28;;;8.93;61.24
9439;BME280;5176;42.622;25.386;2023-04-10T01:05:13;97283.94;;;8.87;61.94
9439;BME280;5176;42.622;25.386;2023-04-10T01:07:53;97300.47;;;8.88;63.20
9439;BME280;5176;42.622;25.386;2023-04-10T01:10:28;97286.38;;;8.74;63.62
9439;BME280;5176;42.622;25.386;2023-04-10T01:13:07;97290.44;;;8.64;64.63
9439;BME280;5176;42.622;25.386;2023-04-10T01:15:42;97283.19;;;8.38;63.95
9439;BME280;5176;42.622;25.386;2023-04-10T01:18:20;97291.16;;;8.35;65.07
9439;BME280;5176;42.622;25.386;2023-04-10T01:20:53;97294.69;;;8.34;65.32
9439;BME280;5176;42.622;25.386;2023-04-10T01:26:54;97289.03;;;8.26;66.59
9439;BME280;5176;42.622;25.386;2023-04-10T01:29:28;97288.44;;;8.20;66.76
9439;BME280;5176;42.622;25.386;2023-04-10T01:32:01;97287.84;;;8.15;67.20
9439;BME280;5176;42.622;25.386;2023-04-10T01:34:34;97288.53;;;8.19;67.86
9439;BME280;5176;42.622;25.386;2023-04-10T01:37:07;97288.44;;;8.20;68.12
9439;BME280;5176;42.622;25.386;2023-04-10T01:39:41;97286.34;;;8.27;67.75
9439;BME280;5176;42.622;25.386;2023-04-10T01:42:13;97282.38;;;8.20;67.92
9439;BME280;5176;42.622;25.386;2023-04-10T01:44:45;97281.97;;;8.28;67.79
9439;BME280;5176;42.622;25.386;2023-04-10T01:47:15;97284.41;;;8.31;67.07
9439;BME280;5176;42.622;25.386;2023-04-10T01:49:45;97283.81;;;8.26;67.28
9439;BME280;5176;42.622;25.386;2023-04-10T01:52:14;97281.72;;;8.16;67.96
9439;BME280;5176;42.622;25.386;2023-04-10T01:54:44;97287.78;;;8.17;67.27
9439;BME280;5176;42.622;25.386;2023-04-10T01:57:15;97290.81;;;8.09;67.93
9439;BME280;5176;42.622;25.386;2023-04-10T01:59:47;97283.19;;;8.05;67.86
9439;BME280;5176;42.622;25.386;2023-04-10T02:02:15;97280.81;;;8.00;67.24
9439;BME280;5176;42.622;25.386;2023-04-10T02:04:44;97291.34;;;7.99;68.02
9439;BME280;5176;42.622;25.386;2023-04-10T02:07:20;97290.34;;;8.01;68.06
9439;BME280;5176;42.622;25.386;2023-04-10T02:09:58;97287.59;;;8.04;68.01
9439;BME280;5176;42.622;25.386;2023-04-10T02:12:29;97283.84;;;7.92;68.60
9439;BME280;5176;42.622;25.386;2023-04-10T02:15:01;97283.63;;;7.97;69.56
9439;BME280;5176;42.622;25.386;2023-04-10T02:17:33;97283.94;;;8.07;69.19
9439;BME280;5176;42.622;25.386;2023-04-10T02:20:04;97275.28;;;8.06;68.24
9439;BME280;5176;42.622;25.386;2023-04-10T02:22:35;97279.84;;;8.03;68.93
9439;BME280;5176;42.622;25.386;2023-04-10T02:25:05;97283.66;;;7.96;69.82
9439;BME280;5176;42.622;25.386;2023-04-10T02:27:35;97276.09;;;7.91;70.33
9439;BME280;5176;42.622;25.386;2023-04-10T02:30:07;97265.97;;;7.85;70.16
9439;BME280;5176;42.622;25.386;2023-04-10T02:32:36;97269.34;;;7.87;69.92
9439;BME280;5176;42.622;25.386;2023-04-10T02:35:05;97269.44;;;7.85;70.76
9439;BME280;5176;42.622;25.386;2023-04-10T02:37:34;97264.22;;;7.85;71.08
9439;BME280;5176;42.622;25.386;2023-04-10T02:40:03;97265.81;;;7.88;71.14
9439;BME280;5176;42.622;25.386;2023-04-10T02:42:32;97264.81;;;7.90;70.29
9439;BME280;5176;42.622;25.386;2023-04-10T02:45:00;97256.28;;;7.87;71.42
9439;BME280;5176;42.622;25.386;2023-04-10T02:47:30;97251.91;;;7.87;70.67
9439;BME280;5176;42.622;25.386;2023-04-10T02:49:59;97266.31;;;7.95;70.66
9439;BME280;5176;42.622;25.386;2023-04-10T02:52:28;97260.66;;;7.86;70.64
9439;BME280;5176;42.622;25.386;2023-04-10T02:54:56;97258.28;;;7.82;70.41
9439;BME280;5176;42.622;25.386;2023-04-10T02:57:26;97255.25;;;7.74;71.14
9439;BME280;5176;42.622;25.386;2023-04-10T02:59:54;97249.28;;;7.72;70.33
9439;BME280;5176;42.622;25.386;2023-04-10T03:02:24;97254.31;;;7.75;71.06
9439;BME280;5176;42.622;25.386;2023-04-10T03:04:54;97251.03;;;7.71;71.53
9439;BME280;5176;42.622;25.386;2023-04-10T03:07:23;97254.41;;;7.73;70.67
9439;BME280;5176;42.622;25.386;2023-04-10T03:09:51;97240.69;;;7.70;71.21
9439;BME280;5176;42.622;25.386;2023-04-10T03:12:20;97243.66;;;7.62;71.45
9439;BME280;5176;42.622;25.386;2023-04-10T03:14:49;97253.22;;;7.63;71.39
9439;BME280;5176;42.622;25.386;2023-04-10T03:17:17;97252.81;;;7.71;71.73
9439;BME280;5176;42.622;25.386;2023-04-10T03:19:45;97252.72;;;7.72;71.76
9439;BME280;5176;42.622;25.386;2023-04-10T03:22:15;97253.56;;;7.73;71.82
9439;BME280;5176;42.622;25.386;2023-04-10T03:24:44;97255.66;;;7.66;71.63
9439;BME280;5176;42.622;25.386;2023-04-10T03:27:15;97262.81;;;7.62;72.58
9439;BME280;5176;42.622;25.386;2023-04-10T03:29:43;97254.97;;;7.62;71.92
9439;BME280;5176;42.622;25.386;2023-04-10T03:32:12;97254.81;;;7.65;71.73
9439;BME280;5176;42.622;25.386;2023-04-10T03:34:40;97257.81;;;7.58;72.31
9439;BME280;5176;42.622;25.386;2023-04-10T03:37:09;97251.44;;;7.63;72.30
9439;BME280;5176;42.622;25.386;2023-04-10T03:39:39;97246.13;;;7.65;72.09
9439;BME280;5176;42.622;25.386;2023-04-10T03:42:08;97229.53;;;7.50;72.23
9439;BME280;5176;42.622;25.386;2023-04-10T03:44:37;97239.38;;;7.61;73.25
9439;BME280;5176;42.622;25.386;2023-04-10T03:47:06;97250.31;;;7.52;73.37
9439;BME280;5176;42.622;25.386;2023-04-10T03:49:35;97253.22;;;7.46;73.54
9439;BME280;5176;42.622;25.386;2023-04-10T03:52:04;97259.69;;;7.38;72.72
9439;BME280;5176;42.622;25.386;2023-04-10T03:54:32;97258.00;;;7.37;72.90
9439;BME280;5176;42.622;25.386;2023-04-10T03:57:02;97250.25;;;7.36;72.29
9439;BME280;5176;42.622;25.386;2023-04-10T03:59:31;97252.53;;;7.25;72.69
9439;BME280;5176;42.622;25.386;2023-04-10T04:01:59;97248.66;;;7.16;73.92
9439;BME280;5176;42.622;25.386;2023-04-10T04:04:28;97251.84;;;7.04;74.83
9439;BME280;5176;42.622;25.386;2023-04-10T04:06:57;97256.44;;;6.99;74.44
9439;BME280;5176;42.622;25.386;2023-04-10T04:09:26;97253.00;;;6.98;74.34
9439;BME280;5176;42.622;25.386;2023-04-10T04:11:54;97253.75;;;7.00;74.81
9439;BME280;5176;42.622;25.386;2023-04-10T04:14:25;97255.31;;;7.04;73.75
9439;BME280;5176;42.622;25.386;2023-04-10T04:16:53;97254.38;;;7.05;74.86
9439;BME280;5176;42.622;25.386;2023-04-10T04:19:22;97256.44;;;6.99;75.13
9439;BME280;5176;42.622;25.386;2023-04-10T04:21:51;97253.13;;;6.95;75.24
9439;BME280;5176;42.622;25.386;2023-04-10T04:24:19;97256.28;;;7.02;75.08
9439;BME280;5176;42.622;25.386;2023-04-10T04:26:48;97258.00;;;7.03;75.31
9439;BME280;5176;42.622;25.386;2023-04-10T04:29:17;97252.84;;;7.01;75.01
9439;BME280;5176;42.622;25.386;2023-04-10T04:31:47;97248.78;;;6.96;75.22
9439;BME280;5176;42.622;25.386;2023-04-10T04:34:16;97262.03;;;7.08;76.48
9439;BME280;5176;42.622;25.386;2023-04-10T04:36:44;97249.94;;;7.07;75.18
9439;BME280;5176;42.622;25.386;2023-04-10T04:39:13;97262.66;;;7.14;75.36
9439;BME280;5176;42.622;25.386;2023-04-10T04:41:41;97258.59;;;7.25;75.28
9439;BME280;5176;42.622;25.386;2023-04-10T04:44:10;97263.34;;;7.34;75.27
9439;BME280;5176;42.622;25.386;2023-04-10T04:46:39;97262.09;;;7.42;74.20
9439;BME280;5176;42.622;25.386;2023-04-10T04:49:09;97255.59;;;7.50;73.12
9439;BME280;5176;42.622;25.386;2023-04-10T04:51:38;97260.25;;;7.61;72.10
9439;BME280;5176;42.622;25.386;2023-04-10T04:54:07;97257.72;;;7.77;72.18
9439;BME280;5176;42.622;25.386;2023-04-10T04:56:35;97246.66;;;8.05;69.75
9439;BME280;5176;42.622;25.386;2023-04-10T04:59:04;97256.06;;;8.72;64.91
9439;BME280;5176;42.622;25.386;2023-04-10T05:01:33;97255.38;;;9.14;61.35
9439;BME280;5176;42.622;25.386;2023-04-10T05:04:02;97263.78;;;9.49;59.85
9439;BME280;5176;42.622;25.386;2023-04-10T05:06:32;97243.50;;;9.53;59.21
9439;BME280;5176;42.622;25.386;2023-04-10T05:09:01;97265.25;;;9.83;58.32
9439;BME280;5176;42.622;25.386;2023-04-10T05:11:30;97273.16;;;9.96;57.59
9439;BME280;5176;42.622;25.386;2023-04-10T05:13:59;97249.59;;;9.96;56.68
9439;BME280;5176;42.622;25.386;2023-04-10T05:16:28;97261.56;;;10.15;56.42
9439;BME280;5176;42.622;25.386;2023-04-10T05:18:56;97272.19;;;10.27;55.61
9439;BME280;5176;42.622;25.386;2023-04-10T05:21:25;97278.53;;;10.38;55.46
9439;BME280;5176;42.622;25.386;2023-04-10T05:23:56;97283.56;;;10.41;54.78
9439;BME280;5176;42.622;25.386;2023-04-10T05:26:26;97278.50;;;10.52;55.40
9439;BME280;5176;42.622;25.386;2023-04-10T05:28:55;97274.47;;;10.60;55.03
9439;BME280;5176;42.622;25.386;2023-04-10T05:31:25;97276.13;;;10.61;54.51
9439;BME280;5176;42.622;25.386;2023-04-10T05:33:53;97283.22;;;10.74;54.64
9439;BME280;5176;42.622;25.386;2023-04-10T05:36:22;97293.88;;;10.85;54.21
9439;BME280;5176;42.622;25.386;2023-04-10T05:38:51;97284.19;;;11.00;53.44
9439;BME280;5176;42.622;25.386;2023-04-10T05:41:21;97283.91;;;11.04;53.14
9439;BME280;5176;42.622;25.386;2023-04-10T05:43:50;97289.19;;;11.17;53.21
9439;BME280;5176;42.622;25.386;2023-04-10T05:46:19;97281.50;;;11.14;52.65
9439;BME280;5176;42.622;25.386;2023-04-10T05:48:48;97283.94;;;11.17;52.20
9439;BME280;5176;42.622;25.386;2023-04-10T05:51:16;97280.31;;;11.32;52.78
9439;BME280;5176;42.622;25.386;2023-04-10T05:53:45;97276.75;;;11.46;52.30
9439;BME280;5176;42.622;25.386;2023-04-10T05:56:14;97284.34;;;11.51;51.37
9439;BME280;5176;42.622;25.386;2023-04-10T05:58:44;97271.63;;;11.44;51.84
9439;BME280;5176;42.622;25.386;2023-04-10T06:01:12;97288.81;;;11.49;51.76
9439;BME280;5176;42.622;25.386;2023-04-10T06:03:41;97265.63;;;11.55;51.63
9439;BME280;5176;42.622;25.386;2023-04-10T06:06:10;97276.84;;;11.84;50.27
9439;BME280;5176;42.622;25.386;2023-04-10T06:08:38;97279.13;;;11.89;50.48
9439;BME280;5176;42.622;25.386;2023-04-10T06:11:08;97274.00;;;11.87;50.44
9439;BME280;5176;42.622;25.386;2023-04-10T06:13:36;97276.31;;;11.92;49.52
9439;BME280;5176;42.622;25.386;2023-04-10T06:16:07;97277.34;;;11.89;50.42
9439;BME280;5176;42.622;25.386;2023-04-10T06:18:37;97272.41;;;12.10;50.42
9439;BME280;5176;42.622;25.386;2023-04-10T06:21:06;97268.63;;;12.14;50.63
9439;BME280;5176;42.622;25.386;2023-04-10T06:23:35;97272.72;;;12.31;50.16
9439;BME280;5176;42.622;25.386;2023-04-10T06:26:04;97265.53;;;12.46;49.52
9439;BME280;5176;42.622;25.386;2023-04-10T06:28:33;97275.66;;;12.26;49.96
9439;BME280;5176;42.622;25.386;2023-04-10T06:31:01;97277.75;;;12.21;50.20
9439;BME280;5176;42.622;25.386;2023-04-10T06:33:32;97274.19;;;12.22;50.23
9439;BME280;5176;42.622;25.386;2023-04-10T06:36:02;97280.06;;;12.39;49.28
9439;BME280;5176;42.622;25.386;2023-04-10T06:38:31;97278.16;;;12.28;50.00
9439;BME280;5176;42.622;25.386;2023-04-10T06:41:04;97280.91;;;12.26;49.82
9439;BME280;5176;42.622;25.386;2023-04-10T06:43:33;97290.47;;;12.40;49.64
9439;BME280;5176;42.622;25.386;2023-04-10T06:46:02;97287.66;;;12.31;50.42
9439;BME280;5176;42.622;25.386;2023-04-10T06:48:33;97277.34;;;12.27;49.76
9439;BME280;5176;42.622;25.386;2023-04-10T06:51:02;97290.13;;;12.45;49.52
9439;BME280;5176;42.622;25.386;2023-04-10T06:53:31;97278.25;;;12.39;49.24
9439;BME280;5176;42.622;25.386;2023-04-10T06:55:59;97272.13;;;12.64;49.09
9439;BME280;5176;42.622;25.386;2023-04-10T06:58:28;97298.97;;;12.80;48.12
9439;BME280;5176;42.622;25.386;2023-04-10T07:00:57;97305.38;;;12.89;47.73
9439;BME280;5176;42.622;25.386;2023-04-10T07:03:30;97302.78;;;12.76;48.80
9439;BME280;5176;42.622;25.386;2023-04-10T07:06:01;97299.03;;;12.55;49.52
9439;BME280;5176;42.622;25.386;2023-04-10T07:08:30;97294.47;;;12.33;49.93
9439;BME280;5176;42.622;25.386;2023-04-10T07:10:58;97297.19;;;12.44;49.34
9439;BME280;5176;42.622;25.386;2023-04-10T07:13:27;97298.22;;;12.42;49.57
9439;BME280;5176;42.622;25.386;2023-04-10T07:15:56;97298.88;;;12.33;49.46
9439;BME280;5176;42.622;25.386;2023-04-10T07:18:25;97295.41;;;12.32;49.91
9439;BME280;5176;42.622;25.386;2023-04-10T07:20:53;97301.38;;;12.47;49.64
9439;BME280;5176;42.622;25.386;2023-04-10T07:23:24;97308.13;;;12.51;49.02
9439;BME280;5176;42.622;25.386;2023-04-10T07:25:53;97295.00;;;12.38;49.76
9439;BME280;5176;42.622;25.386;2023-04-10T07:28:22;97302.66;;;12.41;49.34
9439;BME280;5176;42.622;25.386;2023-04-10T07:30:51;97296.97;;;12.35;49.81
9439;BME280;5176;42.622;25.386;2023-04-10T07:33:20;97306.13;;;12.29;49.64
9439;BME280;5176;42.622;25.386;2023-04-10T07:35:49;97304.13;;;12.45;49.55
9439;BME280;5176;42.622;25.386;2023-04-10T07:38:17;97306.25;;;12.27;50.06
9439;BME280;5176;42.622;25.386;2023-04-10T07:40:48;97308.75;;;12.29;50.52
9439;BME280;5176;42.622;25.386;2023-04-10T07:43:17;97305.00;;;12.20;50.28
9439;BME280;5176;42.622;25.386;2023-04-10T07:45:45;97299.84;;;12.19;49.91
9439;BME280;5176;42.622;25.386;2023-04-10T07:48:14;97295.97;;;12.24;50.12
9439;BME280;5176;42.622;25.386;2023-04-10T07:50:43;97301.94;;;12.39;49.71
9439;BME280;5176;42.622;25.386;2023-04-10T07:53:12;97310.94;;;12.48;49.29
9439;BME280;5176;42.622;25.386;2023-04-10T07:55:41;97305.56;;;12.49;49.40
9439;BME280;5176;42.622;25.386;2023-04-10T07:58:12;97310.69;;;12.64;49.82
9439;BME280;5176;42.622;25.386;2023-04-10T08:00:41;97318.66;;;13.12;47.90
9439;BME280;5176;42.622;25.386;2023-04-10T08:03:10;97297.03;;;13.32;47.15
9439;BME280;5176;42.622;25.386;2023-04-10T08:05:39;97302.31;;;13.43;47.60
9439;BME280;5176;42.622;25.386;2023-04-10T08:08:08;97309.47;;;13.65;47.78
9439;BME280;5176;42.622;25.386;2023-04-10T08:10:37;97298.34;;;13.73;46.61
9439;BME280;5176;42.622;25.386;2023-04-10T08:13:06;97311.97;;;13.67;46.46
9439;BME280;5176;42.622;25.386;2023-04-10T08:15:36;97297.59;;;13.59;45.97
9439;BME280;5176;42.622;25.386;2023-04-10T08:18:05;97294.28;;;13.33;47.46
9439;BME280;5176;42.622;25.386;2023-04-10T08:20:33;97303.50;;;13.39;47.09
9439;BME280;5176;42.622;25.386;2023-04-10T08:23:03;97306.22;;;13.26;47.03
9439;BME280;5176;42.622;25.386;2023-04-10T08:25:32;97298.78;;;13.07;46.15
9439;BME280;5176;42.622;25.386;2023-04-10T08:28:01;97291.06;;;12.93;46.16
9439;BME280;5176;42.622;25.386;2023-04-10T08:30:30;97298.75;;;13.20;47.18
9439;BME280;5176;42.622;25.386;2023-04-10T08:33:01;97297.63;;;13.35;46.17
9439;BME280;5176;42.622;25.386;2023-04-10T08:35:30;97287.25;;;13.45;46.38
9439;BME280;5176;42.622;25.386;2023-04-10T08:37:58;97280.28;;;13.33;46.86
9439;BME280;5176;42.622;25.386;2023-04-10T08:40:27;97277.38;;;13.25;46.79
9439;BME280;5176;42.622;25.386;2023-04-10T08:42:56;97279.22;;;12.75;47.39
9439;BME280;5176;42.622;25.386;2023-04-10T08:45:25;97287.69;;;12.91;47.37
9439;BME280;5176;42.622;25.386;2023-04-10T08:47:55;97283.13;;;13.17;46.76
9439;BME280;5176;42.622;25.386;2023-04-10T08:50:28;97280.78;;;13.38;46.18
9439;BME280;5176;42.622;25.386;2023-04-10T08:52:59;97278.78;;;13.53;45.11
9439;BME280;5176;42.622;25.386;2023-04-10T08:55:31;97265.38;;;13.56;44.94
9439;BME280;5176;42.622;25.386;2023-04-10T08:58:00;97265.03;;;13.60;45.51
9439;BME280;5176;42.622;25.386;2023-04-10T09:00:29;97266.63;;;13.74;45.60
9439;BME280;5176;42.622;25.386;2023-04-10T09:03:00;97262.44;;;13.83;45.30
9439;BME280;5176;42.622;25.386;2023-04-10T09:05:34;97256.00;;;13.87;44.94
9439;BME280;5176;42.622;25.386;2023-04-10T09:08:03;97261.75;;;14.03;44.52
9439;BME280;5176;42.622;25.386;2023-04-10T09:10:32;97260.56;;;14.41;43.23
9439;BME280;5176;42.622;25.386;2023-04-10T09:13:00;97253.03;;;14.48;42.94
9439;BME280;5176;42.622;25.386;2023-04-10T09:15:29;97245.53;;;14.86;43.12
9439;BME280;5176;42.622;25.386;2023-04-10T09:17:59;97227.47;;;15.03;43.33
9439;BME280;5176;42.622;25.386;2023-04-10T09:20:29;97252.72;;;15.16;42.46
9439;BME280;5176;42.622;25.386;2023-04-10T09:22:59;97241.41;;;15.05;43.61
9439;BME280;5176;42.622;25.386;2023-04-10T09:25:34;97247.69;;;14.92;43.33
9439;BME280;5176;42.622;25.386;2023-04-10T09:28:08;97241.28;;;14.18;44.32
9439;BME280;5176;42.622;25.386;2023-04-10T09:30:37;97245.69;;;14.29;44.49
9439;BME280;5176;42.622;25.386;2023-04-10T09:33:23;97238.00;;;14.70;43.68
9439;BME280;5176;42.622;25.386;2023-04-10T09:35:56;97249.22;;;14.84;42.07
9439;BME280;5176;42.622;25.386;2023-04-10T09:38:27;97243.25;;;14.82;42.17
9439;BME280;5176;42.622;25.386;2023-04-10T09:41:06;97239.44;;;14.63;43.13
9439;BME280;5176;42.622;25.386;2023-04-10T09:43:34;97244.28;;;14.47;42.42
9439;BME280;5176;42.622;25.386;2023-04-10T09:46:05;97237.06;;;14.15;43.08
9439;BME280;5176;42.622;25.386;2023-04-10T09:48:34;97235.25;;;13.82;43.85
9439;BME280;5176;42.622;25.386;2023-04-10T09:51:03;97238.16;;;14.02;43.84
9439;BME280;5176;42.622;25.386;2023-04-10T09:53:47;97233.84;;;14.01;44.53
9439;BME280;5176;42.622;25.386;2023-04-10T09:56:18;97232.47;;;13.61;45.12
9439;BME280;5176;42.622;25.386;2023-04-10T09:58:48;97228.66;;;13.77;45.64
9439;BME280;5176;42.622;25.386;2023-04-10T10:01:18;97223.44;;;13.99;45.21
9439;BME280;5176;42.622;25.386;2023-04-10T10:03:48;97224.25;;;14.00;44.68
9439;BME280;5176;42.622;25.386;2023-04-10T10:06:18;97223.03;;;14.04;44.60
9439;BME280;5176;42.622;25.386;2023-04-10T10:08:50;97223.28;;;13.89;45.14
9439;BME280;5176;42.622;25.386;2023-04-10T10:11:20;97220.03;;;13.97;45.34
9439;BME280;5176;42.622;25.386;2023-04-10T10:13:52;97215.16;;;13.93;44.90
9439;BME280;5176;42.622;25.386;2023-04-10T10:16:28;97212.03;;;13.99;44.65
9439;BME280;5176;42.622;25.386;2023-04-10T10:19:05;97211.41;;;13.73;43.96
9439;BME280;5176;42.622;25.386;2023-04-10T10:21:37;97210.19;;;13.54;45.21
9439;BME280;5176;42.622;25.386;2023-04-10T10:24:08;97196.22;;;13.65;45.27
9439;BME280;5176;42.622;25.386;2023-04-10T10:26:38;97204.22;;;13.63;44.38
9439;BME280;5176;42.622;25.386;2023-04-10T10:29:08;97201.47;;;13.65;43.92
9439;BME280;5176;42.622;25.386;2023-04-10T10:31:37;97201.47;;;13.65;43.29
9439;BME280;5176;42.622;25.386;2023-04-10T10:34:06;97196.06;;;13.55;44.55
9439;BME280;5176;42.622;25.386;2023-04-10T10:36:35;97195.38;;;13.65;45.21
9439;BME280;5176;42.622;25.386;2023-04-10T10:39:28;97195.69;;;13.38;44.90
9439;BME280;5176;42.622;25.386;2023-04-10T10:42:07;97187.56;;;13.52;44.69
9439;BME280;5176;42.622;25.386;2023-04-10T10:44:44;97161.00;;;13.55;45.04
9439;BME280;5176;42.622;25.386;2023-04-10T10:47:17;97189.63;;;13.82;45.37
9439;BME280;5176;42.622;25.386;2023-04-10T10:49:52;97185.19;;;13.82;44.85
9439;BME280;5176;42.622;25.386;2023-04-10T10:52:43;97178.03;;;13.84;45.15
9439;BME280;5176;42.622;25.386;2023-04-10T10:55:31;97171.91;;;13.84;43.43
9439;BME280;5176;42.622;25.386;2023-04-10T10:58:05;97170.00;;;13.86;43.98
9439;BME280;5176;42.622;25.386;2023-04-10T11:01:04;97157.19;;;13.93;42.82
9439;BME280;5176;42.622;25.386;2023-04-10T11:03:34;97153.56;;;14.16;42.00
9439;BME280;5176;42.622;25.386;2023-04-10T11:06:05;97145.41;;;14.08;41.14
9439;BME280;5176;42.622;25.386;2023-04-10T11:08:35;97144.38;;;13.99;41.78
9439;BME280;5176;42.622;25.386;2023-04-10T11:11:11;97149.16;;;14.05;41.94
9439;BME280;5176;42.622;25.386;2023-04-10T11:14:12;97144.56;;;14.18;42.42
9439;BME280;5176;42.622;25.386;2023-04-10T11:16:50;97147.31;;;14.28;41.64
9439;BME280;5176;42.622;25.386;2023-04-10T11:19:19;97128.97;;;14.38;42.44
9439;BME280;5176;42.622;25.386;2023-04-10T11:22:03;97140.63;;;14.67;42.03
9439;BME280;5176;42.622;25.386;2023-04-10T11:24:59;97143.00;;;14.70;42.17
9439;BME280;5176;42.622;25.386;2023-04-10T11:27:43;97141.16;;;14.82;42.10
9439;BME280;5176;42.622;25.386;2023-04-10T11:30:27;97137.06;;;14.89;42.68
9439;BME280;5176;42.622;25.386;2023-04-10T11:32:57;97130.88;;;14.79;42.87
9439;BME280;5176;42.622;25.386;2023-04-10T11:35:27;97136.00;;;14.60;42.73
9439;BME280;5176;42.622;25.386;2023-04-10T11:38:15;97128.44;;;14.55;43.65
9439;BME280;5176;42.622;25.386;2023-04-10T11:40:53;97121.97;;;14.59;44.09
9439;BME280;5176;42.622;25.386;2023-04-10T11:43:24;97133.00;;;14.42;45.51
9439;BME280;5176;42.622;25.386;2023-04-10T11:46:00;97137.22;;;14.33;45.07
9439;BME280;5176;42.622;25.386;2023-04-10T11:48:30;97138.69;;;14.26;44.46
9439;BME280;5176;42.622;25.386;2023-04-10T11:51:06;97137.25;;;14.11;45.07
9439;BME280;5176;42.622;25.386;2023-04-10T11:53:35;97126.16;;;13.85;45.67
9439;BME280;5176;42.622;25.386;2023-04-10T11:56:05;97127.59;;;13.89;45.86
9439;BME280;5176;42.622;25.386;2023-04-10T11:58:36;97121.34;;;14.01;45.93
9439;BME280;5176;42.622;25.386;2023-04-10T12:01:04;97111.28;;;14.06;45.68
9439;BME280;5176;42.622;25.386;2023-04-10T12:03:37;97114.84;;;14.16;45.47
9439;BME280;5176;42.622;25.386;2023-04-10T12:06:08;97106.31;;;14.24;44.55
9439;BME280;5176;42.622;25.386;2023-04-10T12:08:38;97093.38;;;14.32;44.94
9439;BME280;5176;42.622;25.386;2023-04-10T12:11:08;97104.38;;;14.49;44.26
9439;BME280;5176;42.622;25.386;2023-04-10T12:13:39;97098.97;;;14.50;44.63
9439;BME280;5176;42.622;25.386;2023-04-10T12:16:09;97100.19;;;14.46;44.51
9439;BME280;5176;42.622;25.386;2023-04-10T12:18:39;97100.66;;;14.51;43.14
9439;BME280;5176;42.622;25.386;2023-04-10T12:21:08;97095.72;;;14.58;43.89
9439;BME280;5176;42.622;25.386;2023-04-10T12:23:38;97094.75;;;14.59;43.22
9439;BME280;5176;42.622;25.386;2023-04-10T12:26:08;97090.59;;;14.45;44.03
9439;BME280;5176;42.622;25.386;2023-04-10T12:28:40;97084.56;;;14.43;44.28
9439;BME280;5176;42.622;25.386;2023-04-10T12:31:09;97087.34;;;14.41;44.58
9439;BME280;5176;42.622;25.386;2023-04-10T12:33:38;97085.13;;;14.14;44.60
9439;BME280;5176;42.622;25.386;2023-04-10T12:36:19;97088.03;;;14.11;44.85
9439;BME280;5176;42.622;25.386;2023-04-10T12:38:50;97080.97;;;14.01;44.96
9439;BME280;5176;42.622;25.386;2023-04-10T12:41:21;97082.44;;;14.05;45.10
9439;BME280;5176;42.622;25.386;2023-04-10T12:43:54;97077.78;;;13.86;45.50
9439;BME280;5176;42.622;25.386;2023-04-10T12:46:34;97078.25;;;13.91;45.25
9439;BME280;5176;42.622;25.386;2023-04-10T12:49:08;97083.75;;;13.99;45.32
9439;BME280;5176;42.622;25.386;2023-04-10T12:51:43;97080.22;;;14.10;45.97
9439;BME280;5176;42.622;25.386;2023-04-10T12:54:26;97077.56;;;14.21;45.92
9439;BME280;5176;42.622;25.386;2023-04-10T12:56:56;97085.69;;;14.29;45.67
9439;BME280;5176;42.622;25.386;2023-04-10T12:59:28;97072.03;;;14.24;46.36
9439;BME280;5176;42.622;25.386;2023-04-10T13:01:57;97051.00;;;14.13;45.92
9439;BME280;5176;42.622;25.386;2023-04-10T13:04:29;97062.50;;;14.12;45.76
9439;BME280;5176;42.622;25.386;2023-04-10T13:06:58;97076.06;;;14.07;43.13
9439;BME280;5176;42.622;25.386;2023-04-10T13:09:27;97086.25;;;14.01;43.93
9439;BME280;5176;42.622;25.386;2023-04-10T13:11:56;97078.34;;;13.89;44.74
9439;BME280;5176;42.622;25.386;2023-04-10T13:14:26;97077.16;;;13.94;44.78
9439;BME280;5176;42.622;25.386;2023-04-10T13:16:55;97076.81;;;13.98;44.45
9439;BME280;5176;42.622;25.386;2023-04-10T13:19:23;97053.44;;;13.94;45.17
9439;BME280;5176;42.622;25.386;2023-04-10T13:21:52;97068.66;;;13.90;46.97
9439;BME280;5176;42.622;25.386;2023-04-10T13:24:21;97071.91;;;13.82;47.34
9439;BME280;5176;42.622;25.386;2023-04-10T13:26:48;97079.44;;;13.87;48.04
9439;BME280;5176;42.622;25.386;2023-04-10T13:29:17;97069.50;;;13.90;48.01
9439;BME280;5176;42.622;25.386;2023-04-10T13:31:48;97069.59;;;14.00;47.10
9439;BME280;5176;42.622;25.386;2023-04-10T13:34:17;97058.91;;;14.13;47.04
9439;BME280;5176;42.622;25.386;2023-04-10T13:36:45;97068.56;;;14.24;46.11